sensor_id;sensor_type;location;lat;lon;timestamp;P1;durP1;ratioP1;P2;durP2;ratioP2
30127;SDS011;16942;53.196;6.592;2022-08-16T00:01:59;15.25;;;13.65;;
30127;SDS011;16942;53.196;6.592;2022-08-16T00:04:25;15.48;;;13.88;;
30127;SDS011;16942;53.196;6.592;2022-08-16T00:06:52;17.50;;;13.48;;
30127;SDS011;16942;53.196;6.592;2022-08-16T00:09:17;14.77;;;13.18;;
30127;SDS011;16942;53.196;6.592;2022-08-16T00:11:43;17.33;;;15.15;;
30127;SDS011;16942;53.196;6.592;2022-08-16T00:14:11;16.67;;;13.93;;
30127;SDS011;16942;53.196;6.592;2022-08-16T00:16:39;19.73;;;15.65;;
30127;SDS011;16942;53.196;6.592;2022-08-16T00:19:05;18.70;;;14.15;;
30127;SDS011;16942;53.196;6.592;2022-08-16T00:21:31;18.70;;;14.50;;
30127;SDS011;16942;53.196;6.592;2022-08-16T00:23:57;18.48;;;14.82;;
30127;SDS011;16942;53.196;6.592;2022-08-16T00:26:23;17.85;;;15.90;;
30127;SDS011;16942;53.196;6.592;2022-08-16T00:28:49;19.23;;;15.45;;
30127;SDS011;16942;53.196;6.592;2022-08-16T00:31:15;18.80;;;15.88;;
30127;SDS011;16942;53.196;6.592;2022-08-16T00:33:40;18.45;;;15.48;;
30127;SDS011;16942;53.196;6.592;2022-08-16T00:36:06;18.55;;;15.82;;
30127;SDS011;16942;53.196;6.592;2022-08-16T00:38:32;18.48;;;15.10;;
30127;SDS011;16942;53.196;6.592;2022-08-16T00:40:57;20.25;;;16.33;;
30127;SDS011;16942;53.196;6.592;2022-08-16T00:43:27;20.52;;;16.00;;
30127;SDS011;16942;53.196;6.592;2022-08-16T00:48:44;19.52;;;16.80;;
30127;SDS011;16942;53.196;6.592;2022-08-16T00:51:11;19.75;;;17.33;;
30127;SDS011;16942;53.196;6.592;2022-08-16T00:53:39;18.25;;;16.35;;
30127;SDS011;16942;53.196;6.592;2022-08-16T00:56:07;18.60;;;16.33;;
30127;SDS011;16942;53.196;6.592;2022-08-16T00:58:36;20.73;;;16.20;;
30127;SDS011;16942;53.196;6.592;2022-08-16T01:01:07;18.90;;;15.27;;
30127;SDS011;16942;53.196;6.592;2022-08-16T01:03:34;19.73;;;16.00;;
30127;SDS011;16942;53.196;6.592;2022-08-16T01:06:02;18.88;;;16.50;;
30127;SDS011;16942;53.196;6.592;2022-08-16T01:08:30;19.05;;;16.17;;
30127;SDS011;16942;53.196;6.592;2022-08-16T01:10:57;20.02;;;15.70;;
30127;SDS011;16942;53.196;6.592;2022-08-16T01:13:26;21.73;;;16.52;;
30127;SDS011;16942;53.196;6.592;2022-08-16T01:15:56;18.58;;;16.67;;
30127;SDS011;16942;53.196;6.592;2022-08-16T01:18:29;16.98;;;15.15;;
30127;SDS011;16942;53.196;6.592;2022-08-16T01:21:00;22.92;;;15.57;;
30127;SDS011;16942;53.196;6.592;2022-08-16T01:23:35;18.38;;;16.38;;
30127;SDS011;16942;53.196;6.592;2022-08-16T01:26:42;19.08;;;16.38;;
30127;SDS011;16942;53.196;6.592;2022-08-16T01:29:09;19.17;;;16.38;;
30127;SDS011;16942;53.196;6.592;2022-08-16T01:31:38;21.63;;;16.45;;
30127;SDS011;16942;53.196;6.592;2022-08-16T01:34:04;19.38;;;16.10;;
30127;SDS011;16942;53.196;6.592;2022-08-16T01:36:30;22.23;;;17.23;;
30127;SDS011;16942;53.196;6.592;2022-08-16T01:38:56;20.73;;;17.40;;
30127;SDS011;16942;53.196;6.592;2022-08-16T01:41:24;22.42;;;17.85;;
30127;SDS011;16942;53.196;6.592;2022-08-16T01:43:54;21.27;;;17.60;;
30127;SDS011;16942;53.196;6.592;2022-08-16T01:46:22;22.40;;;17.50;;
30127;SDS011;16942;53.196;6.592;2022-08-16T01:48:53;20.10;;;16.88;;
30127;SDS011;16942;53.196;6.592;2022-08-16T01:51:21;24.52;;;17.35;;
30127;SDS011;16942;53.196;6.592;2022-08-16T01:53:49;21.85;;;18.40;;
30127;SDS011;16942;53.196;6.592;2022-08-16T01:56:15;18.73;;;16.65;;
30127;SDS011;16942;53.196;6.592;2022-08-16T01:58:41;23.60;;;18.20;;
30127;SDS011;16942;53.196;6.592;2022-08-16T02:01:07;22.15;;;18.95;;
30127;SDS011;16942;53.196;6.592;2022-08-16T02:03:33;21.77;;;18.17;;
30127;SDS011;16942;53.196;6.592;2022-08-16T02:05:59;21.00;;;18.00;;
30127;SDS011;16942;53.196;6.592;2022-08-16T02:08:24;21.63;;;18.65;;
30127;SDS011;16942;53.196;6.592;2022-08-16T02:10:51;28.40;;;19.95;;
30127;SDS011;16942;53.196;6.592;2022-08-16T02:13:18;25.70;;;19.92;;
30127;SDS011;16942;53.196;6.592;2022-08-16T02:15:44;21.53;;;19.20;;
30127;SDS011;16942;53.196;6.592;2022-08-16T02:18:10;21.35;;;19.05;;
30127;SDS011;16942;53.196;6.592;2022-08-16T02:20:37;26.90;;;19.90;;
30127;SDS011;16942;53.196;6.592;2022-08-16T02:23:04;23.53;;;19.97;;
30127;SDS011;16942;53.196;6.592;2022-08-16T02:25:30;22.10;;;19.27;;
30127;SDS011;16942;53.196;6.592;2022-08-16T02:27:56;26.05;;;20.85;;
30127;SDS011;16942;53.196;6.592;2022-08-16T02:30:24;26.23;;;20.10;;
30127;SDS011;16942;53.196;6.592;2022-08-16T02:32:52;25.17;;;20.10;;
30127;SDS011;16942;53.196;6.592;2022-08-16T02:35:18;25.02;;;20.50;;
30127;SDS011;16942;53.196;6.592;2022-08-16T02:37:44;27.88;;;20.80;;
30127;SDS011;16942;53.196;6.592;2022-08-16T02:40:12;24.58;;;19.50;;
30127;SDS011;16942;53.196;6.592;2022-08-16T02:42:40;24.03;;;19.47;;
30127;SDS011;16942;53.196;6.592;2022-08-16T02:45:07;24.25;;;19.70;;
30127;SDS011;16942;53.196;6.592;2022-08-16T02:47:33;25.23;;;21.10;;
30127;SDS011;16942;53.196;6.592;2022-08-16T02:49:59;23.88;;;20.10;;
30127;SDS011;16942;53.196;6.592;2022-08-16T02:52:25;29.00;;;21.77;;
30127;SDS011;16942;53.196;6.592;2022-08-16T02:54:51;25.27;;;20.15;;
30127;SDS011;16942;53.196;6.592;2022-08-16T02:57:17;28.00;;;21.02;;
30127;SDS011;16942;53.196;6.592;2022-08-16T02:59:43;24.50;;;19.27;;
30127;SDS011;16942;53.196;6.592;2022-08-16T03:02:09;29.42;;;20.52;;
30127;SDS011;16942;53.196;6.592;2022-08-16T03:04:36;25.27;;;19.52;;
30127;SDS011;16942;53.196;6.592;2022-08-16T03:07:02;22.25;;;18.85;;
30127;SDS011;16942;53.196;6.592;2022-08-16T03:09:30;26.92;;;20.00;;
30127;SDS011;16942;53.196;6.592;2022-08-16T03:11:56;25.92;;;20.17;;
30127;SDS011;16942;53.196;6.592;2022-08-16T03:14:22;25.05;;;19.95;;
30127;SDS011;16942;53.196;6.592;2022-08-16T03:16:47;23.60;;;19.27;;
30127;SDS011;16942;53.196;6.592;2022-08-16T03:19:13;25.50;;;20.25;;
30127;SDS011;16942;53.196;6.592;2022-08-16T03:21:39;22.95;;;19.52;;
30127;SDS011;16942;53.196;6.592;2022-08-16T03:24:06;27.27;;;20.63;;
30127;SDS011;16942;53.196;6.592;2022-08-16T03:26:33;26.45;;;21.02;;
30127;SDS011;16942;53.196;6.592;2022-08-16T03:28:59;24.40;;;20.00;;
30127;SDS011;16942;53.196;6.592;2022-08-16T03:31:24;30.30;;;20.42;;
30127;SDS011;16942;53.196;6.592;2022-08-16T03:33:50;26.45;;;20.55;;
30127;SDS011;16942;53.196;6.592;2022-08-16T03:36:16;28.38;;;20.50;;
30127;SDS011;16942;53.196;6.592;2022-08-16T03:38:42;23.90;;;19.52;;
30127;SDS011;16942;53.196;6.592;2022-08-16T03:41:08;24.88;;;20.08;;
30127;SDS011;16942;53.196;6.592;2022-08-16T03:43:34;24.80;;;20.17;;
30127;SDS011;16942;53.196;6.592;2022-08-16T03:46:00;23.35;;;19.85;;
30127;SDS011;16942;53.196;6.592;2022-08-16T03:48:28;25.98;;;19.60;;
30127;SDS011;16942;53.196;6.592;2022-08-16T03:50:57;25.70;;;20.48;;
30127;SDS011;16942;53.196;6.592;2022-08-16T03:53:23;27.33;;;20.17;;
30127;SDS011;16942;53.196;6.592;2022-08-16T03:55:49;23.83;;;20.30;;
30127;SDS011;16942;53.196;6.592;2022-08-16T03:58:16;26.90;;;20.97;;
30127;SDS011;16942;53.196;6.592;2022-08-16T04:00:42;27.37;;;21.63;;
30127;SDS011;16942;53.196;6.592;2022-08-16T04:03:07;26.13;;;21.13;;
30127;SDS011;16942;53.196;6.592;2022-08-16T04:05:34;27.13;;;20.23;;
30127;SDS011;16942;53.196;6.592;2022-08-16T04:08:02;27.17;;;20.63;;
30127;SDS011;16942;53.196;6.592;2022-08-16T04:10:29;24.27;;;20.73;;
30127;SDS011;16942;53.196;6.592;2022-08-16T04:12:55;26.10;;;21.00;;
30127;SDS011;16942;53.196;6.592;2022-08-16T04:15:22;26.77;;;21.00;;
30127;SDS011;16942;53.196;6.592;2022-08-16T04:17:48;25.90;;;21.37;;
30127;SDS011;16942;53.196;6.592;2022-08-16T04:20:14;30.60;;;21.27;;
30127;SDS011;16942;53.196;6.592;2022-08-16T04:22:40;28.23;;;20.83;;
30127;SDS011;16942;53.196;6.592;2022-08-16T04:25:08;29.20;;;20.83;;
30127;SDS011;16942;53.196;6.592;2022-08-16T04:27:34;27.20;;;21.17;;
30127;SDS011;16942;53.196;6.592;2022-08-16T04:30:01;28.50;;;21.13;;
30127;SDS011;16942;53.196;6.592;2022-08-16T04:32:29;27.73;;;21.93;;
30127;SDS011;16942;53.196;6.592;2022-08-16T04:34:55;25.77;;;21.30;;
30127;SDS011;16942;53.196;6.592;2022-08-16T04:37:21;29.53;;;20.00;;
30127;SDS011;16942;53.196;6.592;2022-08-16T04:39:46;26.23;;;21.60;;
30127;SDS011;16942;53.196;6.592;2022-08-16T04:42:12;25.83;;;20.97;;
30127;SDS011;16942;53.196;6.592;2022-08-16T04:44:43;27.30;;;21.87;;
30127;SDS011;16942;53.196;6.592;2022-08-16T04:47:10;31.10;;;22.50;;
30127;SDS011;16942;53.196;6.592;2022-08-16T04:49:36;29.30;;;21.17;;
30127;SDS011;16942;53.196;6.592;2022-08-16T04:52:02;31.73;;;22.73;;
30127;SDS011;16942;53.196;6.592;2022-08-16T04:54:28;28.50;;;22.10;;
30127;SDS011;16942;53.196;6.592;2022-08-16T04:56:54;26.90;;;20.87;;
30127;SDS011;16942;53.196;6.592;2022-08-16T04:59:19;25.43;;;20.67;;
30127;SDS011;16942;53.196;6.592;2022-08-16T05:01:46;29.00;;;21.37;;
30127;SDS011;16942;53.196;6.592;2022-08-16T05:04:11;28.83;;;21.57;;
30127;SDS011;16942;53.196;6.592;2022-08-16T05:06:37;28.13;;;21.23;;
30127;SDS011;16942;53.196;6.592;2022-08-16T05:09:03;26.43;;;21.20;;
30127;SDS011;16942;53.196;6.592;2022-08-16T05:11:28;26.17;;;20.67;;
30127;SDS011;16942;53.196;6.592;2022-08-16T05:13:55;25.97;;;20.47;;
30127;SDS011;16942;53.196;6.592;2022-08-16T05:16:26;26.33;;;21.07;;
30127;SDS011;16942;53.196;6.592;2022-08-16T05:18:54;27.57;;;19.67;;
30127;SDS011;16942;53.196;6.592;2022-08-16T05:21:20;27.40;;;21.17;;
30127;SDS011;16942;53.196;6.592;2022-08-16T05:23:47;28.07;;;20.07;;
30127;SDS011;16942;53.196;6.592;2022-08-16T05:26:14;28.40;;;20.97;;
30127;SDS011;16942;53.196;6.592;2022-08-16T05:28:39;28.40;;;21.83;;
30127;SDS011;16942;53.196;6.592;2022-08-16T05:31:05;26.07;;;20.50;;
30127;SDS011;16942;53.196;6.592;2022-08-16T05:33:31;27.67;;;21.23;;
30127;SDS011;16942;53.196;6.592;2022-08-16T05:35:56;27.27;;;20.87;;
30127;SDS011;16942;53.196;6.592;2022-08-16T05:38:22;26.20;;;21.10;;
30127;SDS011;16942;53.196;6.592;2022-08-16T05:40:54;25.70;;;19.87;;
30127;SDS011;16942;53.196;6.592;2022-08-16T05:43:23;29.50;;;21.83;;
30127;SDS011;16942;53.196;6.592;2022-08-16T05:45:50;25.33;;;20.17;;
30127;SDS011;16942;53.196;6.592;2022-08-16T05:48:16;24.80;;;19.17;;
30127;SDS011;16942;53.196;6.592;2022-08-16T05:50:42;26.60;;;21.73;;
30127;SDS011;16942;53.196;6.592;2022-08-16T05:53:08;29.53;;;22.90;;
30127;SDS011;16942;53.196;6.592;2022-08-16T05:55:34;27.03;;;21.17;;
30127;SDS011;16942;53.196;6.592;2022-08-16T05:58:00;31.27;;;20.70;;
30127;SDS011;16942;53.196;6.592;2022-08-16T06:00:26;26.17;;;19.93;;
30127;SDS011;16942;53.196;6.592;2022-08-16T06:02:51;33.77;;;21.50;;
30127;SDS011;16942;53.196;6.592;2022-08-16T06:05:17;29.20;;;21.30;;
30127;SDS011;16942;53.196;6.592;2022-08-16T06:07:43;29.37;;;21.23;;
30127;SDS011;16942;53.196;6.592;2022-08-16T06:10:10;27.90;;;20.70;;
30127;SDS011;16942;53.196;6.592;2022-08-16T06:12:37;25.20;;;19.70;;
30127;SDS011;16942;53.196;6.592;2022-08-16T06:15:05;30.27;;;19.97;;
30127;SDS011;16942;53.196;6.592;2022-08-16T06:17:34;30.10;;;20.23;;
30127;SDS011;16942;53.196;6.592;2022-08-16T06:20:00;27.20;;;20.37;;
30127;SDS011;16942;53.196;6.592;2022-08-16T06:22:26;29.40;;;20.50;;
30127;SDS011;16942;53.196;6.592;2022-08-16T06:24:51;26.93;;;18.63;;
30127;SDS011;16942;53.196;6.592;2022-08-16T06:27:17;27.53;;;19.70;;
30127;SDS011;16942;53.196;6.592;2022-08-16T06:29:43;25.00;;;19.90;;
30127;SDS011;16942;53.196;6.592;2022-08-16T06:32:08;26.35;;;20.73;;
30127;SDS011;16942;53.196;6.592;2022-08-16T06:34:35;24.10;;;18.33;;
30127;SDS011;16942;53.196;6.592;2022-08-16T06:37:01;23.92;;;18.20;;
30127;SDS011;16942;53.196;6.592;2022-08-16T06:39:27;24.75;;;18.20;;
30127;SDS011;16942;53.196;6.592;2022-08-16T06:41:53;23.02;;;17.15;;
30127;SDS011;16942;53.196;6.592;2022-08-16T06:44:19;21.90;;;17.97;;
30127;SDS011;16942;53.196;6.592;2022-08-16T06:46:45;29.10;;;18.48;;
30127;SDS011;16942;53.196;6.592;2022-08-16T06:49:11;24.50;;;17.70;;
30127;SDS011;16942;53.196;6.592;2022-08-16T06:51:37;23.38;;;17.85;;
30127;SDS011;16942;53.196;6.592;2022-08-16T06:54:04;21.63;;;16.65;;
30127;SDS011;16942;53.196;6.592;2022-08-16T06:56:30;22.92;;;16.83;;
30127;SDS011;16942;53.196;6.592;2022-08-16T06:58:56;25.10;;;17.88;;
30127;SDS011;16942;53.196;6.592;2022-08-16T07:01:22;23.55;;;17.48;;
30127;SDS011;16942;53.196;6.592;2022-08-16T07:03:48;26.40;;;18.30;;
30127;SDS011;16942;53.196;6.592;2022-08-16T07:06:15;23.00;;;17.75;;
30127;SDS011;16942;53.196;6.592;2022-08-16T07:08:42;23.92;;;18.15;;
30127;SDS011;16942;53.196;6.592;2022-08-16T07:11:10;27.85;;;19.40;;
30127;SDS011;16942;53.196;6.592;2022-08-16T07:13:36;29.83;;;20.80;;
30127;SDS011;16942;53.196;6.592;2022-08-16T07:16:02;28.25;;;18.92;;
30127;SDS011;16942;53.196;6.592;2022-08-16T07:18:30;25.73;;;19.33;;
30127;SDS011;16942;53.196;6.592;2022-08-16T07:20:56;24.10;;;19.75;;
30127;SDS011;16942;53.196;6.592;2022-08-16T07:23:23;27.48;;;18.10;;
30127;SDS011;16942;53.196;6.592;2022-08-16T07:25:49;23.63;;;18.20;;
30127;SDS011;16942;53.196;6.592;2022-08-16T07:28:16;23.58;;;17.13;;
30127;SDS011;16942;53.196;6.592;2022-08-16T07:30:43;21.83;;;16.75;;
30127;SDS011;16942;53.196;6.592;2022-08-16T07:33:09;21.10;;;17.05;;
30127;SDS011;16942;53.196;6.592;2022-08-16T07:35:36;22.02;;;17.00;;
30127;SDS011;16942;53.196;6.592;2022-08-16T07:38:03;20.70;;;15.40;;
30127;SDS011;16942;53.196;6.592;2022-08-16T07:40:36;18.70;;;14.90;;
30127;SDS011;16942;53.196;6.592;2022-08-16T07:43:02;19.60;;;15.95;;
30127;SDS011;16942;53.196;6.592;2022-08-16T07:45:29;21.13;;;15.27;;
30127;SDS011;16942;53.196;6.592;2022-08-16T07:47:55;19.83;;;14.93;;
30127;SDS011;16942;53.196;6.592;2022-08-16T07:50:20;17.17;;;13.88;;
30127;SDS011;16942;53.196;6.592;2022-08-16T07:52:46;20.63;;;14.18;;
30127;SDS011;16942;53.196;6.592;2022-08-16T07:55:13;16.60;;;14.57;;
30127;SDS011;16942;53.196;6.592;2022-08-16T07:57:41;14.73;;;13.18;;
30127;SDS011;16942;53.196;6.592;2022-08-16T08:00:08;19.10;;;14.35;;
30127;SDS011;16942;53.196;6.592;2022-08-16T08:02:34;19.65;;;14.68;;
30127;SDS011;16942;53.196;6.592;2022-08-16T08:05:00;20.08;;;14.77;;
30127;SDS011;16942;53.196;6.592;2022-08-16T08:07:27;20.05;;;15.20;;
30127;SDS011;16942;53.196;6.592;2022-08-16T08:09:53;18.23;;;13.88;;
30127;SDS011;16942;53.196;6.592;2022-08-16T08:12:19;19.67;;;14.48;;
30127;SDS011;16942;53.196;6.592;2022-08-16T08:14:45;16.38;;;14.65;;
30127;SDS011;16942;53.196;6.592;2022-08-16T08:17:11;18.92;;;14.13;;
30127;SDS011;16942;53.196;6.592;2022-08-16T08:19:37;21.95;;;14.77;;
30127;SDS011;16942;53.196;6.592;2022-08-16T08:22:04;16.27;;;13.52;;
30127;SDS011;16942;53.196;6.592;2022-08-16T08:24:29;21.73;;;13.05;;
30127;SDS011;16942;53.196;6.592;2022-08-16T08:26:57;15.45;;;13.27;;
30127;SDS011;16942;53.196;6.592;2022-08-16T08:29:24;18.98;;;13.95;;
30127;SDS011;16942;53.196;6.592;2022-08-16T08:31:51;14.88;;;12.90;;
30127;SDS011;16942;53.196;6.592;2022-08-16T08:34:17;27.35;;;13.98;;
30127;SDS011;16942;53.196;6.592;2022-08-16T08:36:43;17.95;;;13.63;;
30127;SDS011;16942;53.196;6.592;2022-08-16T08:39:08;16.65;;;12.80;;
30127;SDS011;16942;53.196;6.592;2022-08-16T08:41:34;16.85;;;12.40;;
30127;SDS011;16942;53.196;6.592;2022-08-16T08:44:00;14.10;;;11.32;;
30127;SDS011;16942;53.196;6.592;2022-08-16T08:46:26;14.00;;;11.50;;
30127;SDS011;16942;53.196;6.592;2022-08-16T08:48:54;14.45;;;11.60;;
30127;SDS011;16942;53.196;6.592;2022-08-16T08:51:20;14.63;;;10.68;;
30127;SDS011;16942;53.196;6.592;2022-08-16T08:53:49;15.93;;;11.15;;
30127;SDS011;16942;53.196;6.592;2022-08-16T08:56:15;13.90;;;11.68;;
30127;SDS011;16942;53.196;6.592;2022-08-16T08:58:41;12.85;;;11.52;;
30127;SDS011;16942;53.196;6.592;2022-08-16T09:01:07;15.18;;;11.45;;
30127;SDS011;16942;53.196;6.592;2022-08-16T09:03:34;14.55;;;11.82;;
30127;SDS011;16942;53.196;6.592;2022-08-16T09:06:00;14.20;;;11.30;;
30127;SDS011;16942;53.196;6.592;2022-08-16T09:08:29;15.68;;;11.90;;
30127;SDS011;16942;53.196;6.592;2022-08-16T09:10:56;12.95;;;11.50;;
30127;SDS011;16942;53.196;6.592;2022-08-16T09:13:23;17.15;;;11.88;;
30127;SDS011;16942;53.196;6.592;2022-08-16T09:15:50;13.30;;;11.10;;
30127;SDS011;16942;53.196;6.592;2022-08-16T09:18:19;14.23;;;10.65;;
30127;SDS011;16942;53.196;6.592;2022-08-16T09:20:48;14.85;;;10.40;;
30127;SDS011;16942;53.196;6.592;2022-08-16T09:23:20;9.75;;;8.75;;
30127;SDS011;16942;53.196;6.592;2022-08-16T09:25:47;11.30;;;8.25;;
30127;SDS011;16942;53.196;6.592;2022-08-16T09:28:12;10.18;;;8.45;;
30127;SDS011;16942;53.196;6.592;2022-08-16T09:30:39;14.10;;;9.20;;
30127;SDS011;16942;53.196;6.592;2022-08-16T09:33:05;10.45;;;7.88;;
30127;SDS011;16942;53.196;6.592;2022-08-16T09:35:31;10.98;;;7.40;;
30127;SDS011;16942;53.196;6.592;2022-08-16T09:37:57;9.48;;;8.45;;
30127;SDS011;16942;53.196;6.592;2022-08-16T09:40:23;10.98;;;8.60;;
30127;SDS011;16942;53.196;6.592;2022-08-16T09:42:49;14.15;;;8.90;;
30127;SDS011;16942;53.196;6.592;2022-08-16T09:45:15;10.63;;;7.85;;
30127;SDS011;16942;53.196;6.592;2022-08-16T09:47:41;13.90;;;7.75;;
30127;SDS011;16942;53.196;6.592;2022-08-16T09:50:07;15.02;;;9.32;;
30127;SDS011;16942;53.196;6.592;2022-08-16T09:52:34;11.75;;;8.70;;
30127;SDS011;16942;53.196;6.592;2022-08-16T09:55:03;11.82;;;9.60;;
30127;SDS011;16942;53.196;6.592;2022-08-16T09:57:37;11.38;;;9.23;;
30127;SDS011;16942;53.196;6.592;2022-08-16T10:00:06;12.05;;;8.55;;
30127;SDS011;16942;53.196;6.592;2022-08-16T10:02:36;9.98;;;8.70;;
30127;SDS011;16942;53.196;6.592;2022-08-16T10:05:04;11.13;;;7.80;;
30127;SDS011;16942;53.196;6.592;2022-08-16T10:07:30;10.95;;;7.88;;
30127;SDS011;16942;53.196;6.592;2022-08-16T10:09:56;10.07;;;8.52;;
30127;SDS011;16942;53.196;6.592;2022-08-16T10:12:25;8.60;;;7.72;;
30127;SDS011;16942;53.196;6.592;2022-08-16T10:15:15;11.15;;;8.02;;
30127;SDS011;16942;53.196;6.592;2022-08-16T10:17:45;9.32;;;8.27;;
30127;SDS011;16942;53.196;6.592;2022-08-16T10:20:13;9.85;;;8.70;;
30127;SDS011;16942;53.196;6.592;2022-08-16T10:22:39;14.43;;;9.43;;
30127;SDS011;16942;53.196;6.592;2022-08-16T10:25:05;11.68;;;10.15;;
30127;SDS011;16942;53.196;6.592;2022-08-16T10:27:32;11.85;;;8.40;;
30127;SDS011;16942;53.196;6.592;2022-08-16T10:29:59;10.35;;;7.88;;
30127;SDS011;16942;53.196;6.592;2022-08-16T10:32:25;10.32;;;9.15;;
30127;SDS011;16942;53.196;6.592;2022-08-16T10:34:51;13.38;;;9.50;;
30127;SDS011;16942;53.196;6.592;2022-08-16T10:37:17;10.45;;;8.65;;
30127;SDS011;16942;53.196;6.592;2022-08-16T10:39:42;10.45;;;9.43;;
30127;SDS011;16942;53.196;6.592;2022-08-16T10:42:11;13.95;;;9.73;;
30127;SDS011;16942;53.196;6.592;2022-08-16T10:44:36;9.55;;;8.43;;
30127;SDS011;16942;53.196;6.592;2022-08-16T10:47:03;10.15;;;8.75;;
30127;SDS011;16942;53.196;6.592;2022-08-16T10:49:29;12.00;;;9.10;;
30127;SDS011;16942;53.196;6.592;2022-08-16T10:55:17;10.98;;;9.50;;
30127;SDS011;16942;53.196;6.592;2022-08-16T10:57:43;15.10;;;9.70;;
30127;SDS011;16942;53.196;6.592;2022-08-16T11:00:10;10.63;;;9.68;;
30127;SDS011;16942;53.196;6.592;2022-08-16T11:02:39;16.42;;;10.25;;
30127;SDS011;16942;53.196;6.592;2022-08-16T11:05:06;14.50;;;9.75;;
30127;SDS011;16942;53.196;6.592;2022-08-16T11:07:36;10.40;;;9.35;;
30127;SDS011;16942;53.196;6.592;2022-08-16T11:10:06;12.07;;;9.23;;
30127;SDS011;16942;53.196;6.592;2022-08-16T11:12:33;12.38;;;9.80;;
30127;SDS011;16942;53.196;6.592;2022-08-16T11:14:59;12.10;;;10.93;;
30127;SDS011;16942;53.196;6.592;2022-08-16T11:17:24;12.80;;;9.52;;
30127;SDS011;16942;53.196;6.592;2022-08-16T11:19:50;10.73;;;8.98;;
30127;SDS011;16942;53.196;6.592;2022-08-16T11:22:16;11.82;;;8.90;;
30127;SDS011;16942;53.196;6.592;2022-08-16T11:24:43;11.90;;;9.70;;
30127;SDS011;16942;53.196;6.592;2022-08-16T11:27:12;10.20;;;9.40;;
30127;SDS011;16942;53.196;6.592;2022-08-16T11:29:40;14.65;;;10.85;;
30127;SDS011;16942;53.196;6.592;2022-08-16T11:32:05;13.57;;;9.07;;
30127;SDS011;16942;53.196;6.592;2022-08-16T11:34:31;10.30;;;9.40;;
30127;SDS011;16942;53.196;6.592;2022-08-16T11:36:59;10.05;;;9.15;;
30127;SDS011;16942;53.196;6.592;2022-08-16T11:39:26;10.95;;;8.88;;
30127;SDS011;16942;53.196;6.592;2022-08-16T11:41:52;11.93;;;8.32;;
30127;SDS011;16942;53.196;6.592;2022-08-16T11:44:18;9.68;;;8.38;;
30127;SDS011;16942;53.196;6.592;2022-08-16T11:46:44;12.85;;;8.77;;
30127;SDS011;16942;53.196;6.592;2022-08-16T11:49:09;12.45;;;8.32;;
30127;SDS011;16942;53.196;6.592;2022-08-16T11:51:35;9.93;;;9.00;;
30127;SDS011;16942;53.196;6.592;2022-08-16T11:54:01;9.07;;;7.60;;
30127;SDS011;16942;53.196;6.592;2022-08-16T11:56:26;8.75;;;7.93;;
30127;SDS011;16942;53.196;6.592;2022-08-16T11:58:52;11.57;;;9.27;;
30127;SDS011;16942;53.196;6.592;2022-08-16T12:01:17;9.27;;;8.43;;
30127;SDS011;16942;53.196;6.592;2022-08-16T12:03:44;11.75;;;8.38;;
30127;SDS011;16942;53.196;6.592;2022-08-16T12:06:13;9.55;;;8.38;;
30127;SDS011;16942;53.196;6.592;2022-08-16T12:08:41;8.52;;;7.72;;
30127;SDS011;16942;53.196;6.592;2022-08-16T12:11:08;12.90;;;8.10;;
30127;SDS011;16942;53.196;6.592;2022-08-16T12:13:35;8.20;;;7.40;;
30127;SDS011;16942;53.196;6.592;2022-08-16T12:16:01;9.02;;;7.60;;
30127;SDS011;16942;53.196;6.592;2022-08-16T12:18:28;13.23;;;8.25;;
30127;SDS011;16942;53.196;6.592;2022-08-16T12:20:54;11.30;;;7.22;;
30127;SDS011;16942;53.196;6.592;2022-08-16T12:23:20;17.92;;;8.07;;
30127;SDS011;16942;53.196;6.592;2022-08-16T12:25:46;15.98;;;8.13;;
30127;SDS011;16942;53.196;6.592;2022-08-16T12:28:11;7.93;;;7.22;;
30127;SDS011;16942;53.196;6.592;2022-08-16T12:30:38;12.00;;;7.72;;
30127;SDS011;16942;53.196;6.592;2022-08-16T12:33:07;12.30;;;8.00;;
30127;SDS011;16942;53.196;6.592;2022-08-16T12:35:35;9.55;;;7.78;;
30127;SDS011;16942;53.196;6.592;2022-08-16T12:38:03;8.85;;;7.53;;
30127;SDS011;16942;53.196;6.592;2022-08-16T12:40:31;9.60;;;7.57;;
30127;SDS011;16942;53.196;6.592;2022-08-16T12:42:59;11.15;;;8.90;;
30127;SDS011;16942;53.196;6.592;2022-08-16T12:45:30;12.18;;;8.00;;
30127;SDS011;16942;53.196;6.592;2022-08-16T12:47:58;9.60;;;8.20;;
30127;SDS011;16942;53.196;6.592;2022-08-16T12:50:43;11.88;;;8.80;;
30127;SDS011;16942;53.196;6.592;2022-08-16T12:53:09;9.68;;;7.53;;
30127;SDS011;16942;53.196;6.592;2022-08-16T12:55:35;11.35;;;7.18;;
30127;SDS011;16942;53.196;6.592;2022-08-16T12:58:02;10.35;;;7.88;;
30127;SDS011;16942;53.196;6.592;2022-08-16T13:00:28;15.73;;;7.88;;
30127;SDS011;16942;53.196;6.592;2022-08-16T13:02:55;8.40;;;7.10;;
30127;SDS011;16942;53.196;6.592;2022-08-16T13:05:22;8.18;;;7.47;;
30127;SDS011;16942;53.196;6.592;2022-08-16T13:07:48;9.68;;;7.57;;
30127;SDS011;16942;53.196;6.592;2022-08-16T13:10:14;8.60;;;7.45;;
30127;SDS011;16942;53.196;6.592;2022-08-16T13:12:41;9.80;;;7.18;;
30127;SDS011;16942;53.196;6.592;2022-08-16T13:15:11;8.15;;;7.05;;
30127;SDS011;16942;53.196;6.592;2022-08-16T13:17:39;10.10;;;6.65;;
30127;SDS011;16942;53.196;6.592;2022-08-16T13:20:09;11.55;;;5.88;;
30127;SDS011;16942;53.196;6.592;2022-08-16T13:22:41;7.47;;;6.75;;
30127;SDS011;16942;53.196;6.592;2022-08-16T13:25:09;7.57;;;6.38;;
30127;SDS011;16942;53.196;6.592;2022-08-16T13:27:39;10.50;;;7.78;;
30127;SDS011;16942;53.196;6.592;2022-08-16T13:30:05;12.75;;;8.35;;
30127;SDS011;16942;53.196;6.592;2022-08-16T13:32:31;13.65;;;9.80;;
30127;SDS011;16942;53.196;6.592;2022-08-16T13:34:57;12.80;;;11.52;;
30127;SDS011;16942;53.196;6.592;2022-08-16T13:37:22;10.50;;;9.50;;
30127;SDS011;16942;53.196;6.592;2022-08-16T13:39:48;15.80;;;10.40;;
30127;SDS011;16942;53.196;6.592;2022-08-16T13:42:14;11.68;;;10.55;;
30127;SDS011;16942;53.196;6.592;2022-08-16T13:44:40;11.40;;;10.30;;
30127;SDS011;16942;53.196;6.592;2022-08-16T13:47:06;16.75;;;10.55;;
30127;SDS011;16942;53.196;6.592;2022-08-16T13:49:32;11.13;;;9.68;;
30127;SDS011;16942;53.196;6.592;2022-08-16T13:51:58;11.25;;;10.20;;
30127;SDS011;16942;53.196;6.592;2022-08-16T13:54:24;9.27;;;8.38;;
30127;SDS011;16942;53.196;6.592;2022-08-16T13:56:50;10.50;;;9.02;;
30127;SDS011;16942;53.196;6.592;2022-08-16T13:59:16;9.40;;;8.57;;
30127;SDS011;16942;53.196;6.592;2022-08-16T14:01:43;10.77;;;9.75;;
30127;SDS011;16942;53.196;6.592;2022-08-16T14:04:10;9.80;;;8.80;;
30127;SDS011;16942;53.196;6.592;2022-08-16T14:06:35;14.77;;;9.15;;
30127;SDS011;16942;53.196;6.592;2022-08-16T14:09:02;10.55;;;9.07;;
30127;SDS011;16942;53.196;6.592;2022-08-16T14:11:27;14.80;;;10.30;;
30127;SDS011;16942;53.196;6.592;2022-08-16T14:13:53;9.90;;;8.85;;
30127;SDS011;16942;53.196;6.592;2022-08-16T14:16:19;13.90;;;10.10;;
30127;SDS011;16942;53.196;6.592;2022-08-16T14:18:44;13.25;;;9.45;;
30127;SDS011;16942;53.196;6.592;2022-08-16T14:21:10;13.55;;;10.05;;
30127;SDS011;16942;53.196;6.592;2022-08-16T14:23:35;11.15;;;10.05;;
30127;SDS011;16942;53.196;6.592;2022-08-16T14:26:01;9.07;;;7.80;;
30127;SDS011;16942;53.196;6.592;2022-08-16T14:28:28;12.60;;;9.15;;
30127;SDS011;16942;53.196;6.592;2022-08-16T14:30:53;10.45;;;7.25;;